Time;durP1;ratioP1;P1;durP2;ratioP2;P2;SDS_P1;SDS_P2;PMS_P1;PMS_P2;Temp;Humidity;BMP_temperature;BMP_pressure;BME280_temperature;BME280_humidity;BME280_pressure;Samples;Min_cycle;Max_cycle;Signal;HPM_P1;HPM_P2
2021/11/29 00:01:40;;;;;;;2.20;2.10;;;;;;;2.64;81.73;99275.81;6274852;22;20502;-76
2021/11/29 00:04:06;;;;;;;2.80;2.60;;;;;;;2.71;80.38;99277.31;6274754;22;20023;-74
2021/11/29 00:06:32;;;;;;;1.08;1.08;;;;;;;2.73;80.04;99270.38;6274665;22;20529;-74
2021/11/29 00:08:58;;;;;;;3.65;3.45;;;;;;;2.68;81.51;99266.25;6301982;22;20077;-76
2021/11/29 00:11:24;;;;;;;1.00;1.00;;;;;;;2.67;81.18;99265.41;6300514;22;20026;-74
2021/11/29 00:13:50;;;;;;;0.75;0.75;;;;;;;2.68;80.96;99259.38;6299790;22;20019;-75
2021/11/29 00:16:17;;;;;;;3.10;2.50;;;;;;;2.69;81.08;99243.00;6300275;22;20019;-75
2021/11/29 00:18:43;;;;;;;1.63;1.63;;;;;;;2.66;81.95;99247.41;6301727;22;20023;-75
2021/11/29 00:21:11;;;;;;;0.98;0.98;;;;;;;2.64;80.74;99224.28;6301789;22;20015;-74
2021/11/29 00:23:37;;;;;;;2.08;1.98;;;;;;;2.65;81.33;99235.44;6301606;22;20054;-74
2021/11/29 00:26:03;;;;;;;1.63;1.63;;;;;;;2.58;81.85;99234.81;6299898;22;20019;-74
2021/11/29 00:28:29;;;;;;;1.95;1.85;;;;;;;2.56;81.99;99221.97;6301254;22;20034;-73
2021/11/29 00:30:55;;;;;;;1.08;1.08;;;;;;;2.58;81.86;99224.50;6299605;22;20019;-74
2021/11/29 00:33:22;;;;;;;0.98;0.98;;;;;;;2.62;81.66;99221.75;6301720;22;20068;-74
2021/11/29 00:35:48;;;;;;;1.33;1.33;;;;;;;2.62;81.80;99215.75;6301420;22;20266;-74
2021/11/29 00:38:14;;;;;;;1.00;1.00;;;;;;;2.62;81.73;99211.44;6300174;22;20045;-74
2021/11/29 00:40:40;;;;;;;1.42;1.42;;;;;;;2.59;82.10;99200.41;6301318;22;20102;-74
2021/11/29 00:43:07;;;;;;;2.38;2.28;;;;;;;2.65;81.69;99197.63;6300220;22;20095;-74
2021/11/29 00:45:33;;;;;;;1.88;1.77;;;;;;;2.63;81.96;99210.56;6301556;22;20523;-74
2021/11/29 00:47:59;;;;;;;2.60;2.50;;;;;;;2.66;82.29;99185.59;6300106;22;20011;-75
2021/11/29 00:50:25;;;;;;;2.88;2.67;;;;;;;2.63;82.42;99196.84;6301511;22;20026;-74
2021/11/29 00:52:51;;;;;;;1.75;1.73;;;;;;;2.63;82.66;99204.56;6299231;22;20019;-73
2021/11/29 00:55:17;;;;;;;1.35;1.35;;;;;;;2.63;82.78;99202.00;6301414;22;20034;-74
2021/11/29 00:57:43;;;;;;;0.98;0.98;;;;;;;2.63;82.76;99197.69;6302467;22;20029;-76
2021/11/29 01:00:15;;;;;;;2.63;2.53;;;;;;;2.55;83.38;99185.97;6303308;22;20019;-75
2021/11/29 01:02:41;;;;;;;1.95;1.85;;;;;;;2.63;83.26;99197.69;6303204;22;20026;-75
2021/11/29 01:05:08;;;;;;;1.55;1.23;;;;;;;2.64;84.07;99190.81;6301464;22;20019;-75
2021/11/29 01:07:34;;;;;;;1.58;1.58;;;;;;;2.56;84.44;99179.91;6327238;22;20016;-74
2021/11/29 01:10:00;;;;;;;2.70;2.60;;;;;;;2.66;84.83;99181.28;6301399;22;20102;-73
2021/11/29 01:12:26;;;;;;;1.30;1.30;;;;;;;2.66;85.17;99181.28;6303101;22;20082;-73
2021/11/29 01:14:52;;;;;;;0.80;0.80;;;;;;;2.67;85.36;99177.81;6328004;22;20224;-73
2021/11/29 01:17:18;;;;;;;3.20;2.97;;;;;;;2.69;85.94;99178.59;6333503;22;20064;-73
2021/11/29 01:19:44;;;;;;;1.52;1.52;;;;;;;2.65;85.79;99173.63;6306597;22;20015;-74
2021/11/29 01:22:11;;;;;;;3.53;3.38;;;;;;;2.62;85.72;99174.53;6334655;22;20079;-73
2021/11/29 01:24:37;;;;;;;3.03;2.75;;;;;;;2.57;85.81;99166.13;6306954;22;20018;-74
2021/11/29 01:27:04;;;;;;;2.85;2.65;;;;;;;2.59;85.99;99169.50;6334229;22;20068;-74
2021/11/29 01:29:30;;;;;;;1.30;1.30;;;;;;;2.59;86.97;99170.34;6280549;22;20019;-74
2021/11/29 01:31:56;;;;;;;1.60;1.50;;;;;;;2.53;86.77;99160.25;6306646;22;20022;-74
2021/11/29 01:34:22;;;;;;;7.05;6.18;;;;;;;2.62;86.77;99169.38;6334024;22;20227;-75
2021/11/29 01:36:48;;;;;;;5.25;4.78;;;;;;;2.59;86.94;99159.19;6333479;22;20018;-74
2021/11/29 01:39:14;;;;;;;3.63;3.17;;;;;;;2.54;86.92;99150.78;6306926;22;20026;-74
2021/11/29 01:41:42;;;;;;;3.42;3.17;;;;;;;2.52;87.12;99160.31;6333664;22;20015;-73
2021/11/29 01:44:08;;;;;;;3.05;2.95;;;;;;;2.51;86.58;99156.03;6334183;22;20010;-74
2021/11/29 01:46:34;;;;;;;1.70;1.67;;;;;;;2.55;86.93;99163.59;6333645;22;20015;-73
2021/11/29 01:49:00;;;;;;;2.53;2.45;;;;;;;2.56;87.10;99154.13;6306628;22;20029;-72
2021/11/29 01:51:26;;;;;;;1.20;1.20;;;;;;;2.57;87.10;99148.09;6306261;22;20023;-74
2021/11/29 01:53:52;;;;;;;1.85;1.27;;;;;;;2.57;87.09;99142.94;6305912;22;20253;-75
2021/11/29 01:56:19;;;;;;;4.75;4.28;;;;;;;2.59;87.49;99148.88;6306541;22;20097;-76
2021/11/29 01:58:45;;;;;;;1.48;1.48;;;;;;;2.65;86.75;99143.50;6333554;22;20021;-74
2021/11/29 02:01:15;;;;;;;2.47;2.38;;;;;;;2.62;87.31;99148.78;6306496;22;20535;-76
2021/11/29 02:03:42;;;;;;;2.90;2.22;;;;;;;2.60;86.95;99138.53;6281139;22;20068;-75
2021/11/29 02:06:09;;;;;;;2.47;2.20;;;;;;;2.57;86.82;99142.94;6333709;22;20026;-74
2021/11/29 02:08:35;;;;;;;1.92;1.80;;;;;;;2.56;87.28;99136.09;6305719;22;20023;-75
2021/11/29 02:11:01;;;;;;;1.70;1.70;;;;;;;2.53;87.10;99146.50;6306154;22;20019;-73
2021/11/29 02:13:27;;;;;;;1.67;1.60;;;;;;;2.55;87.18;99132.69;6301208;22;20026;-75
2021/11/29 02:15:53;;;;;;;1.65;1.63;;;;;;;2.55;87.73;99132.69;6300749;22;20122;-74
2021/11/29 02:18:27;;;;;;;3.13;2.85;;;;;;;2.48;88.23;99122.66;6300979;22;20050;-76
2021/11/29 02:21:19;;;;;;;2.97;2.83;;;;;;;2.48;88.61;99123.50;6300664;22;20349;-75
2021/11/29 02:24:05;;;;;;;4.43;4.13;;;;;;;2.47;88.95;99116.66;6275124;22;20034;-76
2021/11/29 02:26:33;;;;;;;1.77;1.77;;;;;;;2.41;89.12;99113.47;6302725;22;20019;-74
2021/11/29 02:29:07;;;;;;;2.15;2.05;;;;;;;2.40;89.61;99114.34;6300936;22;20022;-74
2021/11/29 02:31:36;;;;;;;2.47;2.08;;;;;;;2.44;90.10;99118.50;6302544;22;20015;-74
2021/11/29 02:34:12;;;;;;;1.45;1.45;;;;;;;2.43;90.18;99111.66;6300910;22;20019;-75
2021/11/29 02:36:39;;;;;;;2.28;1.92;;;;;;;2.40;90.33;99116.91;6300492;22;20023;-75
2021/11/29 02:39:06;;;;;;;2.70;2.60;;;;;;;2.34;90.76;99105.09;6275403;22;20023;-73
2021/11/29 02:41:32;;;;;;;3.30;3.00;;;;;;;2.33;90.98;99112.84;6302181;22;20019;-73
2021/11/29 02:43:58;;;;;;;2.33;2.20;;;;;;;2.29;92.01;99103.59;6302147;22;20519;-74
2021/11/29 02:46:25;;;;;;;1.90;1.80;;;;;;;2.32;92.06;99113.78;6300586;22;20069;-75
2021/11/29 02:48:51;;;;;;;7.22;5.43;;;;;;;2.27;92.24;99102.78;6300385;22;20015;-76
2021/11/29 02:51:23;;;;;;;2.05;2.00;;;;;;;2.33;92.84;99098.25;6300382;22;20023;-75
2021/11/29 02:53:51;;;;;;;2.90;2.17;;;;;;;2.33;93.03;99087.97;6300284;22;20019;-75
2021/11/29 02:56:18;;;;;;;1.85;1.75;;;;;;;2.34;92.88;99086.22;6301741;22;20095;-75
2021/11/29 02:58:44;;;;;;;1.02;0.93;;;;;;;2.34;93.58;99099.94;6301669;22;20022;-75
2021/11/29 03:01:10;;;;;;;1.52;1.52;;;;;;;2.38;93.86;99085.25;6300113;22;20031;-73
2021/11/29 03:03:49;;;;;;;1.50;1.50;;;;;;;2.37;93.95;99097.25;6300094;22;20491;-73
2021/11/29 03:06:15;;;;;;;1.40;1.40;;;;;;;2.38;94.26;99082.66;6301556;22;20094;-72
2021/11/29 03:08:42;;;;;;;1.42;1.42;;;;;;;2.36;94.49;99069.81;6301299;22;20034;-73
2021/11/29 03:11:08;;;;;;;1.75;1.75;;;;;;;2.39;94.76;99079.22;6301933;22;20046;-73
2021/11/29 03:13:34;;;;;;;3.97;3.72;;;;;;;2.38;94.91;99087.81;6310461;22;20026;-74
2021/11/29 03:16:00;;;;;;;0.65;0.65;;;;;;;2.37;94.98;99080.97;6332840;22;20018;-74
2021/11/29 03:18:34;;;;;;;1.45;1.45;;;;;;;2.37;95.27;99086.13;6282386;22;20019;-73
2021/11/29 03:21:00;;;;;;;1.23;1.23;;;;;;;2.37;95.41;99079.25;6306896;22;20015;-72
2021/11/29 03:23:27;;;;;;;1.30;1.30;;;;;;;2.36;95.61;99085.28;6305926;22;20106;-73
2021/11/29 03:25:53;;;;;;;1.67;1.65;;;;;;;2.37;95.80;99073.25;6333512;22;20068;-72
2021/11/29 03:28:19;;;;;;;2.20;1.65;;;;;;;2.38;96.04;99092.97;6305891;22;20019;-73
2021/11/29 03:30:46;;;;;;;1.88;1.88;;;;;;;2.32;95.79;99052.81;6332728;22;20050;-73
2021/11/29 03:33:12;;;;;;;4.38;4.07;;;;;;;2.40;96.20;99081.72;6309955;22;20023;-74
2021/11/29 03:35:38;;;;;;;1.30;1.30;;;;;;;2.43;96.71;99080.75;6339695;22;20015;-74
2021/11/29 03:38:06;;;;;;;3.17;2.97;;;;;;;2.42;96.64;99081.66;6339497;22;20044;-74
2021/11/29 03:40:32;;;;;;;3.80;3.53;;;;;;;2.43;96.71;99075.59;6279987;22;20408;-75
2021/11/29 03:42:58;;;;;;;5.05;4.60;;;;;;;2.43;96.75;99071.31;6333091;22;20485;-74
2021/11/29 03:45:24;;;;;;;6.50;5.00;;;;;;;2.44;96.79;99072.16;6332681;22;20023;-73
2021/11/29 03:47:50;;;;;;;3.28;3.17;;;;;;;2.45;97.25;99063.53;6332896;22;20019;-75
2021/11/29 03:50:17;;;;;;;3.17;3.00;;;;;;;2.46;97.62;99067.78;6305251;22;20033;-75
2021/11/29 03:52:43;;;;;;;2.55;2.45;;;;;;;2.44;97.70;99060.13;6305230;22;20080;-75
2021/11/29 03:55:09;;;;;;;2.08;1.98;;;;;;;2.48;97.56;99063.44;6305444;22;20068;-75
2021/11/29 03:57:35;;;;;;;1.30;1.30;;;;;;;2.48;97.62;99058.28;6279229;22;20019;-74
2021/11/29 04:00:02;;;;;;;2.05;2.00;;;;;;;2.51;97.73;99058.16;6332400;22;20025;-73
2021/11/29 04:02:39;;;;;;;24.63;9.85;;;;;;;2.46;97.93;99044.59;6332790;22;20015;-73
2021/11/29 04:05:05;;;;;;;1.77;1.77;;;;;;;2.48;100.00;99038.50;6331597;22;20014;-73
2021/11/29 04:07:31;;;;;;;11.05;6.75;;;;;;;2.54;100.00;99052.91;6304946;22;20521;-74
2021/11/29 04:09:57;;;;;;;6.03;5.63;;;;;;;2.53;100.00;99043.50;6304771;22;20018;-74
2021/11/29 04:12:23;;;;;;;5.65;2.70;;;;;;;2.54;100.00;99037.44;6332327;22;20019;-73
2021/11/29 04:14:49;;;;;;;4.63;4.28;;;;;;;2.55;100.00;99044.28;6331967;22;20450;-73
2021/11/29 04:17:15;;;;;;;3.88;3.78;;;;;;;2.54;100.00;99042.59;6332133;22;20178;-72
2021/11/29 04:19:44;;;;;;;6.90;6.13;;;;;;;2.55;100.00;99036.56;6331960;22;20014;-72
2021/11/29 04:22:10;;;;;;;3.30;3.13;;;;;;;2.55;100.00;99052.03;6332293;22;20064;-73
2021/11/29 04:24:38;;;;;;;5.10;4.68;;;;;;;2.53;100.00;99052.06;6332782;22;20018;-74
2021/11/29 04:27:06;;;;;;;15.23;7.68;;;;;;;2.50;100.00;99041.88;6331836;22;20026;-73
2021/11/29 04:29:35;;;;;;;1.48;1.48;;;;;;;2.63;100.00;99040.53;6305300;22;20015;-73
2021/11/29 04:32:01;;;;;;;5.20;4.75;;;;;;;2.63;100.00;99044.84;6306032;22;20015;-73
2021/11/29 04:34:27;;;;;;;4.03;3.08;;;;;;;2.63;100.00;99043.13;6334694;22;20022;-73
2021/11/29 04:36:53;;;;;;;5.13;4.78;;;;;;;2.66;100.00;99042.16;6280325;22;20022;-74
2021/11/29 04:39:19;;;;;;;2.92;2.83;;;;;;;2.68;100.00;99045.53;6334483;22;20400;-73
2021/11/29 04:41:45;;;;;;;4.93;4.32;;;;;;;2.68;100.00;99034.38;6334282;22;20488;-73
2021/11/29 04:44:11;;;;;;;9.35;6.38;;;;;;;2.65;100.00;99048.19;6334270;22;20015;-74
2021/11/29 04:46:37;;;;;;;4.05;3.78;;;;;;;2.69;100.00;99042.03;6306314;22;20011;-73
2021/11/29 04:49:05;;;;;;;9.48;4.10;;;;;;;2.69;100.00;99036.03;6306281;22;20532;-73
2021/11/29 04:51:32;;;;;;;2.92;2.83;;;;;;;2.68;100.00;99030.06;6306191;22;20060;-73
2021/11/29 04:53:58;;;;;;;1.15;1.08;;;;;;;2.66;100.00;99031.84;6334252;22;20026;-74
2021/11/29 04:56:24;;;;;;;1.95;1.85;;;;;;;2.70;100.00;99033.44;6334244;22;20026;-74
2021/11/29 04:58:50;;;;;;;4.38;4.18;;;;;;;2.70;100.00;99027.44;6333944;22;20018;-74
2021/11/29 05:01:16;;;;;;;4.28;3.97;;;;;;;2.71;100.00;99024.81;6307100;22;20474;-75
2021/11/29 05:03:42;;;;;;;3.80;3.55;;;;;;;2.75;100.00;99000.59;6334062;22;20516;-76
2021/11/29 05:06:08;;;;;;;1.48;1.48;;;;;;;2.74;100.00;99008.38;6306164;22;20046;-75
2021/11/29 05:08:35;;;;;;;0.63;0.63;;;;;;;2.76;100.00;99012.59;6306905;22;20473;-74
2021/11/29 05:11:01;;;;;;;5.25;4.82;;;;;;;2.72;100.00;99005.84;6333553;22;20014;-74
2021/11/29 05:13:27;;;;;;;3.60;1.80;;;;;;;2.81;100.00;99015.84;6280821;22;20026;-75
2021/11/29 05:15:53;;;;;;;3.63;3.42;;;;;;;2.85;100.00;98986.47;6306457;22;20034;-74
2021/11/29 05:18:19;;;;;;;1.83;1.80;;;;;;;2.84;100.00;99000.28;6306667;22;20057;-74
2021/11/29 05:20:45;;;;;;;2.08;1.95;;;;;;;2.89;100.00;99008.66;6333685;22;20398;-75
2021/11/29 05:23:12;;;;;;;2.28;2.17;;;;;;;2.94;100.00;99011.91;6306957;22;20021;-75
2021/11/29 05:25:38;;;;;;;7.57;3.58;;;;;;;2.94;100.00;99003.34;6333906;22;20042;-74
2021/11/29 05:28:05;;;;;;;2.80;2.60;;;;;;;2.99;100.00;99001.41;6333790;22;20064;-75
2021/11/29 05:30:34;;;;;;;4.47;3.90;;;;;;;3.03;100.00;99011.56;6333465;22;20045;-74
2021/11/29 05:33:00;;;;;;;0.88;0.88;;;;;;;3.02;100.00;99001.28;6307414;22;20045;-74
2021/11/29 05:35:30;;;;;;;2.33;2.22;;;;;;;3.04;100.00;99015.78;6306430;22;20019;-74
2021/11/29 05:37:57;;;;;;;1.08;1.08;;;;;;;3.02;100.00;99004.72;6333642;22;20451;-74
2021/11/29 05:40:22;;;;;;;4.15;3.28;;;;;;;3.05;100.00;99017.47;6333724;22;20076;-74
2021/11/29 05:42:49;;;;;;;2.58;2.38;;;;;;;3.04;100.00;99012.41;6305121;22;20375;-75
2021/11/29 05:45:15;;;;;;;2.65;2.45;;;;;;;3.02;100.00;98996.97;6302353;22;20015;-75
2021/11/29 05:47:42;;;;;;;2.00;1.90;;;;;;;3.03;100.00;99006.41;6304982;22;20022;-72
2021/11/29 05:50:09;;;;;;;1.17;1.17;;;;;;;3.08;100.00;99008.78;6332715;22;20018;-75
2021/11/29 05:52:35;;;;;;;1.08;1.08;;;;;;;3.07;100.00;99002.81;6332518;22;20018;-75
2021/11/29 05:55:01;;;;;;;4.30;3.88;;;;;;;3.08;100.00;98995.91;6304279;22;20019;-75
2021/11/29 05:57:27;;;;;;;1.65;1.63;;;;;;;3.11;100.00;98988.03;6331799;22;20023;-74
2021/11/29 05:59:56;;;;;;;2.78;2.67;;;;;;;3.07;100.00;98982.19;6302762;22;20050;-77
2021/11/29 06:02:22;;;;;;;3.67;3.58;;;;;;;3.11;100.00;98980.31;6280482;22;20018;-77
2021/11/29 06:04:48;;;;;;;1.73;1.73;;;;;;;3.14;100.00;98968.13;6332472;22;20015;-77
2021/11/29 06:07:14;;;;;;;0.95;0.95;;;;;;;3.16;100.00;98973.25;6332532;22;20015;-77
2021/11/29 06:09:41;;;;;;;7.15;3.65;;;;;;;3.17;100.00;98972.38;6332908;22;20060;-77
2021/11/29 06:12:14;;;;;;;1.20;1.17;;;;;;;3.15;100.00;98967.25;6305734;22;20025;-75
2021/11/29 06:14:40;;;;;;;2.10;2.00;;;;;;;3.21;100.00;98957.63;6277201;22;20428;-77
2021/11/29 06:17:06;;;;;;;6.97;3.47;;;;;;;3.23;100.00;98960.97;6330626;22;20394;-75
2021/11/29 06:19:32;;;;;;;3.83;3.55;;;;;;;3.25;100.00;98959.16;6304020;22;20525;-75
2021/11/29 06:21:58;;;;;;;2.53;2.33;;;;;;;3.26;100.00;98945.34;6331034;22;20029;-76
2021/11/29 06:24:24;;;;;;;4.80;4.40;;;;;;;3.29;100.00;98934.91;6304038;22;20086;-75
2021/11/29 06:26:50;;;;;;;2.05;1.95;;;;;;;3.32;100.00;98939.94;6303973;22;20071;-76
2021/11/29 06:29:16;;;;;;;3.92;3.72;;;;;;;3.32;100.00;98942.53;6305185;22;20072;-75
2021/11/29 06:31:42;;;;;;;2.95;2.80;;;;;;;3.32;100.00;98929.63;6332600;22;20458;-76
2021/11/29 06:34:08;;;;;;;0.70;0.70;;;;;;;3.34;100.00;98933.81;6304843;22;20014;-75
2021/11/29 06:36:34;;;;;;;0.90;0.90;;;;;;;3.30;100.00;98915.97;6332324;22;20109;-74
2021/11/29 06:39:01;;;;;;;2.33;2.28;;;;;;;3.33;100.00;98936.47;6304698;22;20019;-77
2021/11/29 06:41:27;;;;;;;5.75;4.85;;;;;;;3.34;100.00;98926.09;6330608;22;20045;-75
2021/11/29 06:43:53;;;;;;;1.00;1.00;;;;;;;3.34;100.00;98922.69;6304772;22;20023;-75
2021/11/29 06:46:19;;;;;;;1.73;1.73;;;;;;;3.38;100.00;98908.75;6254063;22;20015;-76
2021/11/29 06:48:45;;;;;;;1.85;1.85;;;;;;;3.38;100.00;98924.22;6332232;22;20140;-75
2021/11/29 06:51:11;;;;;;;2.25;2.08;;;;;;;3.41;100.00;98917.19;6304603;22;20015;-73
2021/11/29 06:53:37;;;;;;;0.82;0.82;;;;;;;3.43;100.00;98917.16;6332269;22;20499;-75
2021/11/29 06:56:04;;;;;;;2.38;2.17;;;;;;;3.47;100.00;98877.41;6331867;22;20045;-75
2021/11/29 06:58:30;;;;;;;3.72;3.45;;;;;;;3.48;100.00;98889.41;6304688;22;20026;-75
2021/11/29 07:00:56;;;;;;;4.75;3.08;;;;;;;3.53;100.00;98878.00;6331674;22;20049;-74
2021/11/29 07:03:23;;;;;;;2.40;2.10;;;;;;;3.56;100.00;98908.00;6332097;22;20110;-75
2021/11/29 07:05:51;;;;;;;2.00;1.95;;;;;;;3.54;100.00;98897.75;6331985;22;20080;-75
2021/11/29 07:08:19;;;;;;;2.22;2.13;;;;;;;3.61;100.00;98895.75;6332287;22;20019;-75
2021/11/29 07:10:47;;;;;;;2.25;2.15;;;;;;;3.60;100.00;98874.25;6331979;22;20018;-74
2021/11/29 07:13:14;;;;;;;4.35;4.13;;;;;;;3.63;100.00;98878.47;6305080;22;20098;-75
2021/11/29 07:15:40;;;;;;;2.92;2.58;;;;;;;3.67;100.00;98891.16;6228576;22;20050;-74
2021/11/29 07:18:06;;;;;;;5.05;4.65;;;;;;;3.70;100.00;98874.69;6331874;22;20022;-75
2021/11/29 07:20:33;;;;;;;3.35;3.20;;;;;;;3.75;100.00;98883.09;6304743;22;20445;-74
2021/11/29 07:22:59;;;;;;;1.92;1.85;;;;;;;3.77;100.00;98886.44;6331863;22;20015;-76
2021/11/29 07:25:25;;;;;;;2.17;2.08;;;;;;;3.82;100.00;98875.94;6332493;22;20102;-74
2021/11/29 07:27:52;;;;;;;0.98;0.98;;;;;;;3.83;100.00;98873.25;6304512;22;20018;-74
2021/11/29 07:30:20;;;;;;;3.25;3.03;;;;;;;3.90;100.00;98882.41;6277855;22;20015;-76
2021/11/29 07:32:47;;;;;;;3.95;3.63;;;;;;;3.92;100.00;98857.41;6304367;22;20148;-74
2021/11/29 07:35:13;;;;;;;2.58;1.70;;;;;;;3.97;100.00;98852.84;6305066;22;20033;-76
2021/11/29 07:37:39;;;;;;;3.60;2.40;;;;;;;3.97;100.00;98852.00;6332089;22;20022;-74
2021/11/29 07:40:06;;;;;;;16.67;10.82;;;;;;;4.00;100.00;98863.03;6278966;22;20467;-73
2021/11/29 07:42:32;;;;;;;2.30;1.35;;;;;;;4.02;100.00;98856.09;6306952;22;20675;-74
2021/11/29 07:44:58;;;;;;;3.95;3.65;;;;;;;4.04;100.00;98845.69;6308612;22;20015;-74
2021/11/29 07:47:25;;;;;;;2.58;2.38;;;;;;;4.05;100.00;98839.63;6337561;22;20034;-74
2021/11/29 07:49:51;;;;;;;4.40;4.05;;;;;;;4.04;100.00;98836.19;6332609;22;20015;-75
2021/11/29 07:52:18;;;;;;;2.63;2.42;;;;;;;4.13;100.00;98838.34;6304764;22;20056;-74
2021/11/29 07:54:44;;;;;;;3.22;2.85;;;;;;;4.09;100.00;98831.63;6304547;22;20341;-73
2021/11/29 07:57:11;;;;;;;5.03;4.60;;;;;;;4.16;100.00;98837.38;6332029;22;20027;-75
2021/11/29 07:59:37;;;;;;;4.13;3.38;;;;;;;4.18;100.00;98836.41;6332440;22;20395;-75
2021/11/29 08:02:04;;;;;;;3.17;2.97;;;;;;;4.25;100.00;98825.78;6303016;22;20072;-74
2021/11/29 08:04:30;;;;;;;2.33;2.13;;;;;;;4.26;100.00;98824.88;6331514;22;20019;-74
2021/11/29 08:06:56;;;;;;;4.13;3.83;;;;;;;4.28;100.00;98817.91;6331240;22;20528;-74
2021/11/29 08:09:22;;;;;;;3.10;2.78;;;;;;;4.29;100.00;98797.16;6278715;22;20022;-75
2021/11/29 08:11:48;;;;;;;2.85;2.65;;;;;;;4.31;100.00;98807.44;6331765;22;20027;-73
2021/11/29 08:14:14;;;;;;;2.13;2.03;;;;;;;4.33;100.00;98805.59;6284660;22;20152;-74
2021/11/29 08:16:40;;;;;;;3.53;3.22;;;;;;;4.38;100.00;98790.75;6272265;22;20046;-75
2021/11/29 08:19:06;;;;;;;1.73;1.73;;;;;;;4.41;100.00;98785.44;6298321;22;20077;-75
2021/11/29 08:21:32;;;;;;;3.83;2.00;;;;;;;4.44;100.00;98780.13;6246825;22;20018;-75
2021/11/29 08:23:58;;;;;;;1.73;1.73;;;;;;;4.48;100.00;98781.66;6299430;22;20019;-73
2021/11/29 08:26:26;;;;;;;4.45;4.05;;;;;;;4.49;100.00;98765.22;6300286;22;20038;-74
2021/11/29 08:28:52;;;;;;;0.90;0.90;;;;;;;4.52;100.00;98767.66;6272695;22;20026;-74
2021/11/29 08:31:18;;;;;;;1.00;1.00;;;;;;;4.53;100.00;98774.50;6299771;22;20016;-75
2021/11/29 08:33:44;;;;;;;4.90;1.88;;;;;;;4.51;100.00;98760.84;6297831;22;20027;-75
2021/11/29 08:36:10;;;;;;;2.28;2.15;;;;;;;4.51;100.00;98753.94;6271055;22;20023;-76
2021/11/29 08:38:37;;;;;;;1.42;1.42;;;;;;;4.51;100.00;98758.25;6297833;22;20023;-77
2021/11/29 08:41:03;;;;;;;10.85;3.30;;;;;;;4.51;100.00;98751.34;6271853;22;20082;-76
2021/11/29 08:43:29;;;;;;;1.85;1.75;;;;;;;4.52;100.00;98741.81;6299879;22;20019;-75
2021/11/29 08:45:56;;;;;;;1.50;1.50;;;;;;;4.52;100.00;98741.81;6298201;22;20149;-76
2021/11/29 08:48:24;;;;;;;1.08;1.08;;;;;;;4.53;100.00;98746.06;6300363;22;20015;-76
2021/11/29 08:50:53;;;;;;;2.20;2.10;;;;;;;4.54;100.00;98740.00;6272399;22;20019;-76
2021/11/29 08:53:22;;;;;;;1.58;1.58;;;;;;;4.54;100.00;98735.69;6300214;22;20015;-74
2021/11/29 08:55:49;;;;;;;7.32;4.63;;;;;;;4.55;100.00;98727.00;6272712;22;20474;-75
2021/11/29 08:58:15;;;;;;;4.80;1.50;;;;;;;4.53;100.00;98712.50;6297231;22;20087;-74
2021/11/29 09:00:43;;;;;;;3.00;2.80;;;;;;;4.55;100.00;98711.50;6271438;22;20015;-74
2021/11/29 09:03:09;;;;;;;2.42;2.33;;;;;;;4.52;100.00;98697.88;6268919;22;20020;-74
2021/11/29 09:05:36;;;;;;;1.77;1.75;;;;;;;4.62;100.00;98707.69;6298579;22;20503;-74
2021/11/29 09:08:02;;;;;;;1.27;1.27;;;;;;;4.62;100.00;98701.69;6298702;22;20025;-74
2021/11/29 09:10:28;;;;;;;5.97;5.50;;;;;;;4.64;100.00;98708.47;6301692;22;20022;-74
2021/11/29 09:12:54;;;;;;;1.27;1.10;;;;;;;4.64;100.00;98697.31;6299327;22;20019;-75
2021/11/29 09:15:21;;;;;;;1.42;1.33;;;;;;;4.67;100.00;98700.56;6330111;22;20061;-75
2021/11/29 09:17:47;;;;;;;1.63;1.52;;;;;;;4.63;100.00;98698.22;6148383;23;20513;-75
2021/11/29 09:20:14;;;;;;;3.08;2.38;;;;;;;4.66;100.00;98693.72;6191723;22;20031;-74
2021/11/29 09:22:41;;;;;;;0.80;0.80;;;;;;;4.63;100.00;98687.88;6220681;22;20448;-76
2021/11/29 09:25:07;;;;;;;2.15;2.05;;;;;;;4.66;100.00;98687.72;6245681;22;20020;-80
2021/11/29 09:27:33;;;;;;;2.55;2.35;;;;;;;4.65;100.00;98681.69;6246802;22;20023;-77
2021/11/29 09:29:59;;;;;;;2.97;2.03;;;;;;;4.69;100.00;98677.22;6195710;22;20051;-76
2021/11/29 09:32:26;;;;;;;1.23;1.23;;;;;;;4.69;100.00;98669.47;6273053;22;20016;-76
2021/11/29 09:34:52;;;;;;;2.83;2.70;;;;;;;4.70;100.00;98672.00;6245063;22;20015;-75
2021/11/29 09:37:19;;;;;;;2.15;2.05;;;;;;;4.71;100.00;98663.31;6245515;22;20028;-74
2021/11/29 09:39:45;;;;;;;1.40;1.35;;;;;;;4.71;99.90;98660.72;6244239;22;20023;-75
2021/11/29 09:42:12;;;;;;;0.95;0.95;;;;;;;4.70;99.90;98663.41;6271508;22;20019;-73
2021/11/29 09:44:38;;;;;;;1.60;1.50;;;;;;;4.72;100.00;98656.38;6271434;22;20057;-74
2021/11/29 09:47:04;;;;;;;1.50;1.45;;;;;;;4.72;100.00;98664.97;6269821;22;20392;-75
2021/11/29 09:49:40;;;;;;;1.13;1.13;;;;;;;4.73;99.86;98658.06;6272464;22;20022;-75
2021/11/29 09:52:06;;;;;;;2.20;1.38;;;;;;;4.74;100.00;98655.38;6271948;22;20016;-74
2021/11/29 09:54:32;;;;;;;1.58;1.58;;;;;;;4.71;99.84;98644.41;6245699;22;20471;-75
2021/11/29 09:56:58;;;;;;;2.17;2.08;;;;;;;4.70;100.00;98647.88;6271430;22;20026;-75
2021/11/29 09:59:24;;;;;;;1.42;1.42;;;;;;;4.70;100.00;98647.88;6246216;22;20034;-74
2021/11/29 10:01:51;;;;;;;52.83;22.92;;;;;;;5.25;100.00;98646.72;6272894;22;20061;-68
2021/11/29 10:04:17;;;;;;;99.72;31.23;;;;;;;5.66;100.00;98651.44;6219811;22;20015;-73
2021/11/29 10:06:46;;;;;;;36.92;20.60;;;;;;;5.81;98.55;98645.41;6242557;22;20031;-68
2021/11/29 10:09:31;;;;;;;33.30;19.48;;;;;;;5.93;96.99;98630.97;6162549;22;20028;-67
2021/11/29 10:12:09;;;;;;;49.75;24.42;;;;;;;5.93;94.83;98624.03;5902061;22;130379;-64
2021/11/29 10:14:36;;;;;;;10.20;9.07;;;;;;;6.44;94.44;98625.44;6219954;22;20058;-76
2021/11/29 10:17:02;;;;;;;4.72;4.43;;;;;;;6.50;92.79;98625.09;6233779;22;20023;-68
2021/11/29 10:19:31;;;;;;;4.63;4.30;;;;;;;6.48;91.93;98626.91;6271439;22;20027;-68
2021/11/29 10:22:19;;;;;;;3.30;3.08;;;;;;;6.42;90.28;98616.06;6294433;22;20103;-68
2021/11/29 10:24:46;;;;;;;2.63;2.53;;;;;;;6.41;89.66;98615.25;6269755;22;20012;-66
2021/11/29 10:27:13;;;;;;;4.95;4.65;;;;;;;6.40;89.27;98604.97;6271487;22;20019;-65
2021/11/29 10:29:47;;;;;;;35.15;20.25;;;;;;;6.52;89.56;98596.47;6219139;22;20027;-69
2021/11/29 10:32:13;;;;;;;5.57;4.90;;;;;;;6.66;88.88;98604.28;6270006;22;20024;-62
2021/11/29 10:34:42;;;;;;;4.22;3.92;;;;;;;6.63;87.92;98604.47;6190561;22;20035;-64
2021/11/29 10:37:13;;;;;;;4.88;4.55;;;;;;;6.66;87.67;98599.09;6271585;22;20094;-62
2021/11/29 10:39:43;;;;;;;5.35;4.10;;;;;;;6.68;87.23;98592.03;6297853;22;20020;-67
2021/11/29 10:42:12;;;;;;;5.80;5.40;;;;;;;6.66;86.98;98580.94;6223933;22;20539;-61
2021/11/29 10:44:46;;;;;;;4.13;3.83;;;;;;;6.67;86.72;98587.81;6271327;22;20042;-62
2021/11/29 10:47:18;;;;;;;4.20;3.85;;;;;;;6.67;86.88;98586.03;6271746;22;20102;-62
2021/11/29 10:49:47;;;;;;;5.68;5.30;;;;;;;6.61;86.76;98575.19;6271007;22;20111;-61
2021/11/29 10:52:17;;;;;;;5.13;4.43;;;;;;;6.61;86.57;98567.44;6270020;22;20030;-64
2021/11/29 10:54:44;;;;;;;4.88;3.88;;;;;;;6.70;86.31;98564.28;6275266;22;20019;-65
2021/11/29 10:57:12;;;;;;;6.70;4.18;;;;;;;6.66;86.30;98560.19;6248487;22;20359;-62
2021/11/29 10:59:39;;;;;;;7.25;5.00;;;;;;;6.64;86.26;98564.66;6270558;22;20015;-63
2021/11/29 11:02:12;;;;;;;6.75;3.42;;;;;;;6.66;86.37;98562.78;6269993;22;20027;-63
2021/11/29 11:04:39;;;;;;;11.15;4.03;;;;;;;6.65;86.39;98555.91;6270202;22;20061;-62
2021/11/29 11:07:08;;;;;;;4.60;4.20;;;;;;;6.67;86.17;98541.13;6270520;22;20058;-61
2021/11/29 11:09:49;;;;;;;3.78;3.38;;;;;;;6.66;85.86;98536.84;6270344;22;20094;-62
2021/11/29 11:12:15;;;;;;;6.82;4.50;;;;;;;6.64;86.08;98534.34;6271494;22;20356;-62
2021/11/29 11:14:43;;;;;;;4.78;4.25;;;;;;;6.63;86.40;98529.25;6294380;22;20026;-62
2021/11/29 11:17:10;;;;;;;4.45;3.72;;;;;;;6.65;86.34;98530.00;6301485;22;20015;-65
2021/11/29 11:19:41;;;;;;;6.13;5.53;;;;;;;6.63;86.18;98530.09;6275763;22;20456;-65
2021/11/29 11:22:14;;;;;;;3.70;2.90;;;;;;;6.68;85.74;98522.03;6301155;22;20173;-62
2021/11/29 11:24:52;;;;;;;5.95;5.45;;;;;;;6.74;85.33;98513.91;6302230;22;20102;-62
2021/11/29 11:27:19;;;;;;;4.93;4.65;;;;;;;6.74;85.57;98508.72;6275695;22;20015;-61
2021/11/29 11:29:45;;;;;;;4.35;4.03;;;;;;;6.64;85.82;98511.00;6299955;22;20019;-60
2021/11/29 11:32:21;;;;;;;6.60;5.85;;;;;;;6.62;86.34;98501.66;6299851;22;20019;-61
2021/11/29 11:34:55;;;;;;;4.45;4.25;;;;;;;6.59;86.43;98499.25;6300361;22;20193;-62
2021/11/29 11:37:24;;;;;;;3.50;3.30;;;;;;;6.54;86.68;98488.34;6300353;22;20094;-62